createdAt,value
2023-03-19T00:01:16.041Z,20.73
2023-03-19T00:02:38.159Z,20.23
2023-03-19T00:04:00.325Z,18.80
2023-03-19T00:05:22.423Z,18.57
2023-03-19T00:06:44.629Z,19.07
2023-03-19T00:08:06.892Z,19.10
2023-03-19T00:09:29.134Z,19.17
2023-03-19T00:10:51.679Z,18.53
2023-03-19T00:12:13.925Z,17.33
2023-03-19T00:13:36.400Z,18.93
2023-03-19T00:14:58.560Z,18.27
2023-03-19T00:16:20.939Z,18.13
2023-03-19T00:17:43.447Z,18.97
2023-03-19T00:19:05.673Z,18.20
2023-03-19T00:20:27.763Z,20.23
2023-03-19T00:21:49.801Z,19.43
2023-03-19T00:23:12.238Z,19.37
2023-03-19T00:24:34.553Z,18.93
2023-03-19T00:25:56.656Z,18.13
2023-03-19T00:27:18.699Z,18.50
2023-03-19T00:28:41.216Z,18.77
2023-03-19T00:30:04.814Z,19.57
2023-03-19T00:31:28.224Z,17.90
2023-03-19T00:32:50.581Z,18.47
2023-03-19T00:34:13.644Z,19.30
2023-03-19T00:35:36.110Z,18.87
2023-03-19T00:36:58.310Z,18.80
2023-03-19T00:38:20.558Z,20.00
2023-03-19T00:39:43.220Z,19.70
2023-03-19T00:41:07.329Z,19.03
2023-03-19T00:42:30.109Z,17.77
2023-03-19T00:43:57.191Z,18.33
2023-03-19T00:45:19.293Z,18.27
2023-03-19T00:46:41.557Z,18.50
2023-03-19T00:48:03.797Z,18.93
2023-03-19T00:49:25.883Z,19.53
2023-03-19T00:50:48.814Z,20.10
2023-03-19T00:52:11.107Z,18.73
2023-03-19T00:53:36.553Z,19.10
2023-03-19T00:54:58.570Z,19.87
2023-03-19T00:56:21.177Z,20.20
2023-03-19T00:57:43.387Z,19.00
2023-03-19T00:59:05.612Z,19.53
2023-03-19T01:00:28.393Z,18.37
2023-03-19T01:01:51.179Z,20.33
2023-03-19T01:03:13.217Z,20.23
2023-03-19T01:04:35.437Z,18.87
2023-03-19T01:05:58.688Z,19.00
2023-03-19T01:07:21.246Z,19.07
2023-03-19T01:08:43.307Z,19.37
2023-03-19T01:10:06.509Z,18.60
2023-03-19T01:11:28.626Z,18.53
2023-03-19T01:12:51.084Z,19.33
2023-03-19T01:14:13.146Z,19.83
2023-03-19T01:15:39.770Z,19.93
2023-03-19T01:17:01.855Z,20.13
2023-03-19T01:18:23.939Z,19.07
2023-03-19T01:19:46.058Z,18.83
2023-03-19T01:21:08.325Z,21.63
2023-03-19T01:22:30.638Z,20.33
2023-03-19T01:23:52.732Z,18.63
2023-03-19T01:25:14.843Z,20.53
2023-03-19T01:26:36.934Z,18.50
2023-03-19T01:27:59.087Z,20.27
2023-03-19T01:29:21.195Z,18.33
2023-03-19T01:30:43.278Z,18.50
2023-03-19T01:32:06.042Z,20.47
2023-03-19T01:33:28.288Z,19.53
2023-03-19T01:34:50.406Z,19.47
2023-03-19T01:36:13.229Z,19.63
2023-03-19T01:37:36.883Z,20.27
2023-03-19T01:38:59.034Z,19.57
2023-03-19T01:40:21.090Z,18.67
2023-03-19T01:41:43.131Z,17.90
2023-03-19T01:43:23.121Z,19.00
2023-03-19T01:44:45.234Z,20.17
2023-03-19T01:46:15.738Z,20.03
2023-03-19T01:47:41.548Z,19.17
2023-03-19T01:49:07.172Z,17.63
2023-03-19T01:50:34.649Z,19.07
2023-03-19T01:51:59.322Z,19.80
2023-03-19T01:53:25.992Z,19.93
2023-03-19T01:54:48.567Z,20.27
2023-03-19T01:56:27.651Z,21.40
2023-03-19T01:57:49.835Z,18.57
2023-03-19T01:59:23.322Z,18.97
2023-03-19T02:00:45.880Z,21.40
2023-03-19T02:02:33.192Z,20.10
2023-03-19T02:03:55.765Z,19.43
2023-03-19T02:05:25.540Z,19.80
2023-03-19T02:06:47.750Z,19.67
2023-03-19T02:08:13.752Z,17.80
2023-03-19T02:09:36.798Z,19.70
2023-03-19T02:11:00.260Z,20.20
2023-03-19T02:12:22.428Z,18.40
2023-03-19T02:13:44.876Z,17.50
2023-03-19T02:15:07.680Z,19.30
2023-03-19T02:16:29.914Z,19.30
2023-03-19T02:17:52.069Z,18.60
2023-03-19T02:19:18.587Z,19.10
2023-03-19T02:20:55.677Z,18.63
2023-03-19T02:22:21.736Z,19.30
2023-03-19T02:24:08.899Z,19.93
2023-03-19T02:25:44.789Z,17.60
2023-03-19T02:27:09.096Z,17.00
2023-03-19T02:28:33.470Z,18.60
2023-03-19T02:29:55.519Z,19.37
2023-03-19T02:31:18.409Z,20.30
2023-03-19T02:32:40.778Z,19.20
2023-03-19T02:34:24.017Z,20.30
2023-03-19T02:35:50.457Z,19.23
2023-03-19T02:37:33.626Z,19.00
2023-03-19T02:39:00.562Z,19.03
2023-03-19T02:40:31.132Z,19.50
2023-03-19T02:41:54.560Z,18.83
2023-03-19T02:43:16.672Z,18.87
2023-03-19T02:44:38.924Z,19.30
2023-03-19T02:46:02.988Z,19.00
2023-03-19T02:47:26.546Z,20.00
2023-03-19T02:48:49.186Z,18.93
2023-03-19T02:50:11.435Z,18.80
2023-03-19T02:51:33.485Z,19.73
2023-03-19T02:52:55.613Z,18.97
2023-03-19T02:54:17.654Z,18.53
2023-03-19T02:55:39.720Z,17.90
2023-03-19T02:57:01.840Z,21.07
2023-03-19T02:58:23.881Z,18.30
2023-03-19T02:59:46.293Z,20.57
2023-03-19T03:01:08.347Z,20.60
2023-03-19T03:02:30.995Z,18.10
2023-03-19T03:03:53.193Z,19.00
2023-03-19T03:05:15.397Z,18.90
2023-03-19T03:06:37.574Z,21.17
2023-03-19T03:07:59.679Z,19.20
2023-03-19T03:09:22.558Z,18.47
2023-03-19T03:10:44.652Z,18.10
2023-03-19T03:12:07.258Z,18.60
2023-03-19T03:13:29.448Z,19.07
2023-03-19T03:14:51.674Z,19.83
2023-03-19T03:16:13.880Z,17.07
2023-03-19T03:17:40.397Z,19.50
2023-03-19T03:19:02.503Z,19.30
2023-03-19T03:20:24.764Z,19.83
2023-03-19T03:21:46.968Z,21.17
2023-03-19T03:23:09.156Z,20.00
2023-03-19T03:24:31.633Z,19.87
2023-03-19T03:25:53.757Z,19.13
2023-03-19T03:27:16.311Z,18.93
2023-03-19T03:28:38.372Z,19.03
2023-03-19T03:30:00.437Z,18.73
2023-03-19T03:31:23.225Z,19.30
2023-03-19T03:32:45.719Z,21.33
2023-03-19T03:34:08.047Z,21.90
2023-03-19T03:35:30.160Z,21.63
2023-03-19T03:36:52.211Z,19.67
2023-03-19T03:38:14.245Z,18.90
2023-03-19T03:39:37.661Z,20.67
2023-03-19T03:40:59.716Z,17.93
2023-03-19T03:42:21.740Z,19.10
2023-03-19T03:43:43.876Z,16.70
2023-03-19T03:45:06.456Z,18.03
2023-03-19T03:46:28.542Z,17.73
2023-03-19T03:47:51.109Z,19.07
2023-03-19T03:49:13.231Z,19.10
2023-03-19T03:50:35.531Z,18.83
2023-03-19T03:51:57.898Z,18.73
2023-03-19T03:53:20.318Z,17.40
2023-03-19T03:54:42.337Z,18.73
2023-03-19T03:56:04.581Z,19.10
2023-03-19T03:57:27.477Z,19.67
2023-03-19T03:58:49.535Z,17.03
2023-03-19T04:00:12.517Z,18.03
2023-03-19T04:01:34.521Z,19.00
2023-03-19T04:02:56.702Z,17.47
2023-03-19T04:04:20.139Z,18.77
2023-03-19T04:05:43.285Z,16.33
2023-03-19T04:07:05.435Z,17.67
2023-03-19T04:08:27.495Z,16.10
2023-03-19T04:09:50.861Z,15.23
2023-03-19T04:11:13.253Z,17.80
2023-03-19T04:12:37.740Z,16.73
2023-03-19T04:13:59.874Z,16.47
2023-03-19T04:15:22.639Z,15.27
2023-03-19T04:16:44.760Z,16.47
2023-03-19T04:18:06.807Z,16.73
2023-03-19T04:19:28.846Z,17.07
2023-03-19T04:20:52.395Z,16.03
2023-03-19T04:22:14.461Z,17.47
2023-03-19T04:23:36.536Z,17.27
2023-03-19T04:24:58.776Z,16.20
2023-03-19T04:26:21.112Z,16.67
2023-03-19T04:27:43.127Z,15.20
2023-03-19T04:29:05.994Z,16.93
2023-03-19T04:30:28.102Z,18.47
2023-03-19T04:31:51.085Z,16.80
2023-03-19T04:33:13.191Z,16.33
2023-03-19T04:34:35.898Z,17.07
2023-03-19T04:35:58.297Z,16.80
2023-03-19T04:37:20.305Z,15.80
2023-03-19T04:38:42.356Z,16.83
2023-03-19T04:40:05.851Z,16.40
2023-03-19T04:41:27.954Z,16.80
2023-03-19T04:42:50.071Z,17.20
2023-03-19T04:44:12.316Z,16.70
2023-03-19T04:45:34.334Z,16.67
2023-03-19T04:46:56.624Z,18.03
2023-03-19T04:48:18.773Z,17.03
2023-03-19T04:49:41.536Z,16.20
2023-03-19T04:51:03.994Z,16.57
2023-03-19T04:52:26.146Z,15.13
2023-03-19T04:53:48.917Z,15.27
2023-03-19T04:55:11.353Z,15.60
2023-03-19T04:56:33.447Z,16.97
2023-03-19T04:57:55.880Z,16.97
2023-03-19T04:59:18.209Z,16.50
2023-03-19T05:00:40.286Z,16.20
2023-03-19T05:02:02.321Z,16.17
2023-03-19T05:03:24.606Z,17.63
2023-03-19T05:04:46.693Z,16.90
2023-03-19T05:06:08.732Z,16.63
2023-03-19T05:07:30.928Z,16.03
2023-03-19T05:08:53.350Z,16.47
2023-03-19T05:10:15.486Z,17.03
2023-03-19T05:11:37.621Z,17.20
2023-03-19T05:12:59.699Z,18.80
2023-03-19T05:14:21.961Z,18.70
2023-03-19T05:15:45.070Z,16.60
2023-03-19T05:17:07.505Z,18.70
2023-03-19T05:18:29.541Z,17.53
2023-03-19T05:19:52.898Z,18.30
2023-03-19T05:21:16.106Z,20.43
2023-03-19T05:22:38.509Z,19.03
2023-03-19T05:24:00.572Z,26.97
2023-03-19T05:25:22.597Z,37.10
2023-03-19T05:26:44.638Z,43.63
2023-03-19T05:28:08.211Z,43.80
2023-03-19T05:29:30.403Z,43.47
2023-03-19T05:30:52.490Z,43.47
2023-03-19T05:32:14.542Z,43.27
2023-03-19T05:33:36.712Z,46.97
2023-03-19T05:34:59.010Z,40.87
2023-03-19T05:36:21.267Z,33.83
2023-03-19T05:37:43.327Z,29.30
2023-03-19T05:39:06.040Z,24.77
2023-03-19T05:40:28.329Z,25.90
2023-03-19T05:41:50.582Z,22.03
2023-03-19T05:43:13.117Z,23.77
2023-03-19T05:44:35.214Z,21.83
2023-03-19T05:45:57.949Z,19.30
2023-03-19T05:47:20.221Z,19.80
2023-03-19T05:48:42.361Z,17.80
2023-03-19T05:50:05.540Z,18.77
2023-03-19T05:51:27.616Z,20.53
2023-03-19T05:52:49.656Z,19.23
2023-03-19T05:54:11.745Z,19.63
2023-03-19T05:55:33.844Z,20.13
2023-03-19T05:56:55.983Z,19.47
2023-03-19T05:58:18.027Z,18.40
2023-03-19T05:59:40.077Z,18.97
2023-03-19T06:01:02.751Z,17.80
2023-03-19T06:02:24.902Z,19.40
2023-03-19T06:03:46.970Z,19.60
2023-03-19T06:05:10.055Z,18.60
2023-03-19T06:06:32.108Z,16.63
2023-03-19T06:07:54.222Z,18.33
2023-03-19T06:09:16.236Z,18.67
2023-03-19T06:10:38.300Z,17.93
2023-03-19T06:12:00.436Z,18.33
2023-03-19T06:13:22.506Z,19.83
2023-03-19T06:14:44.818Z,20.00
2023-03-19T06:16:07.280Z,19.70
2023-03-19T06:17:29.522Z,20.23
2023-03-19T06:18:51.636Z,21.80
2023-03-19T06:20:13.844Z,20.20
2023-03-19T06:21:36.034Z,20.53
2023-03-19T06:22:58.314Z,20.13
2023-03-19T06:24:20.490Z,19.37
2023-03-19T06:25:42.540Z,19.50
2023-03-19T06:27:04.702Z,18.60
2023-03-19T06:28:26.718Z,19.40
2023-03-19T06:29:48.828Z,16.33
2023-03-19T06:31:11.124Z,19.00
2023-03-19T06:32:33.268Z,18.50
2023-03-19T06:33:56.291Z,18.23
2023-03-19T06:35:18.679Z,18.83
2023-03-19T06:36:40.747Z,16.93
2023-03-19T06:38:02.797Z,19.00
2023-03-19T06:39:24.899Z,18.37
2023-03-19T06:40:46.977Z,17.07
2023-03-19T06:42:09.184Z,16.57
2023-03-19T06:43:31.872Z,18.00
2023-03-19T06:44:53.920Z,17.53
2023-03-19T06:46:16.078Z,18.10
2023-03-19T06:47:40.376Z,18.10
2023-03-19T06:49:02.849Z,17.80
2023-03-19T06:50:24.981Z,17.37
2023-03-19T06:51:47.038Z,17.90
2023-03-19T06:53:09.264Z,18.30
2023-03-19T06:54:31.654Z,20.50
2023-03-19T06:55:54.029Z,18.83
2023-03-19T06:57:16.676Z,20.63
2023-03-19T06:58:38.723Z,20.00
2023-03-19T07:00:01.036Z,21.23
2023-03-19T07:01:23.122Z,20.80
2023-03-19T07:02:45.658Z,20.70
2023-03-19T07:04:07.984Z,19.27
2023-03-19T07:05:30.144Z,20.93
2023-03-19T07:06:52.172Z,19.00
2023-03-19T07:08:14.207Z,21.73
2023-03-19T07:09:36.420Z,20.00
2023-03-19T07:11:05.131Z,20.10
2023-03-19T07:12:27.977Z,20.90
2023-03-19T07:13:50.063Z,20.43
2023-03-19T07:15:12.635Z,20.47
2023-03-19T07:16:34.804Z,20.23
2023-03-19T07:17:57.412Z,21.30
2023-03-19T07:19:19.510Z,22.43
2023-03-19T07:20:41.543Z,20.57
2023-03-19T07:22:03.849Z,22.80
2023-03-19T07:23:25.926Z,22.23
2023-03-19T07:24:48.012Z,20.53
2023-03-19T07:26:11.572Z,20.10
2023-03-19T07:27:34.159Z,20.80
2023-03-19T07:28:56.260Z,22.00
2023-03-19T07:30:18.564Z,20.70
2023-03-19T07:31:40.946Z,20.70
2023-03-19T07:33:03.104Z,20.30
2023-03-19T07:34:26.191Z,20.53
2023-03-19T07:35:48.704Z,21.17
2023-03-19T07:37:10.862Z,20.90
2023-03-19T07:38:33.032Z,21.00
2023-03-19T07:39:55.076Z,20.60
2023-03-19T07:41:17.637Z,21.30
2023-03-19T07:42:39.995Z,20.23
2023-03-19T07:44:02.060Z,19.70
2023-03-19T07:45:24.175Z,19.30
2023-03-19T07:46:46.521Z,22.23
2023-03-19T07:48:08.529Z,21.30
2023-03-19T07:49:31.334Z,21.37
2023-03-19T07:50:54.319Z,20.80
2023-03-19T07:52:19.072Z,19.40
2023-03-19T07:53:41.369Z,18.73
2023-03-19T07:55:03.771Z,19.10
2023-03-19T07:56:25.935Z,18.50
2023-03-19T07:57:48.353Z,17.20
2023-03-19T07:59:11.163Z,18.33
2023-03-19T08:00:33.659Z,18.03
2023-03-19T08:01:55.889Z,18.70
2023-03-19T08:03:18.145Z,18.33
2023-03-19T08:04:41.413Z,18.53
2023-03-19T08:06:03.940Z,19.43
2023-03-19T08:07:26.161Z,18.13
2023-03-19T08:08:48.251Z,18.30
2023-03-19T08:10:11.429Z,17.33
2023-03-19T08:11:33.637Z,16.53
2023-03-19T08:12:55.978Z,18.00
2023-03-19T08:14:22.384Z,17.70
2023-03-19T08:15:44.728Z,17.43
2023-03-19T08:17:06.897Z,16.80
2023-03-19T08:18:29.009Z,17.37
2023-03-19T08:19:51.046Z,17.07
2023-03-19T08:21:13.125Z,18.80
2023-03-19T08:22:38.704Z,18.13
2023-03-19T08:24:02.554Z,16.03
2023-03-19T08:25:27.590Z,17.47
2023-03-19T08:26:50.236Z,17.37
2023-03-19T08:28:12.549Z,16.70
2023-03-19T08:29:35.191Z,18.00
2023-03-19T08:30:57.296Z,17.00
2023-03-19T08:32:19.364Z,17.23
2023-03-19T08:33:41.982Z,16.67
2023-03-19T08:35:06.114Z,17.30
2023-03-19T08:36:28.262Z,16.43
2023-03-19T08:37:50.339Z,15.90
2023-03-19T08:39:12.395Z,17.37
2023-03-19T08:40:34.675Z,16.23
2023-03-19T08:41:57.717Z,17.37
2023-03-19T08:43:19.724Z,15.17
2023-03-19T08:44:41.824Z,16.80
2023-03-19T08:46:05.413Z,15.30
2023-03-19T08:47:27.625Z,16.60
2023-03-19T08:48:49.683Z,16.10
2023-03-19T08:50:12.670Z,14.37
2023-03-19T08:51:34.858Z,15.90
2023-03-19T08:52:57.547Z,16.30
2023-03-19T08:54:22.192Z,15.77
2023-03-19T08:55:45.011Z,14.70
2023-03-19T08:57:07.119Z,14.90
2023-03-19T08:58:29.351Z,14.83
2023-03-19T08:59:53.433Z,15.20
2023-03-19T09:01:15.958Z,14.90
2023-03-19T09:02:38.222Z,14.10
2023-03-19T09:04:00.294Z,15.67
2023-03-19T09:05:23.304Z,16.50
2023-03-19T09:06:45.467Z,17.83
2023-03-19T09:08:07.960Z,18.00
2023-03-19T09:09:30.224Z,16.80
2023-03-19T09:10:52.579Z,16.57
2023-03-19T09:12:16.795Z,16.37
2023-03-19T09:13:39.075Z,16.23
2023-03-19T09:15:01.254Z,14.77
2023-03-19T09:16:23.373Z,15.43
2023-03-19T09:17:45.668Z,13.20
2023-03-19T09:19:08.016Z,14.43
2023-03-19T09:20:30.246Z,13.20
2023-03-19T09:21:52.323Z,13.10
2023-03-19T09:23:14.328Z,12.90
2023-03-19T09:24:38.766Z,13.27
2023-03-19T09:26:02.269Z,11.90
2023-03-19T09:27:24.404Z,13.00
2023-03-19T09:28:46.423Z,12.50
2023-03-19T09:30:12.163Z,12.07
2023-03-19T09:31:34.324Z,11.33
2023-03-19T09:32:56.656Z,11.03
2023-03-19T09:34:18.881Z,10.53
2023-03-19T09:35:41.003Z,10.17
2023-03-19T09:37:03.155Z,8.67
2023-03-19T09:38:25.218Z,9.60
2023-03-19T09:39:47.274Z,8.87
2023-03-19T09:41:09.361Z,9.27
2023-03-19T09:42:50.216Z,7.10
2023-03-19T09:44:33.784Z,6.53
2023-03-19T09:45:56.601Z,6.30
2023-03-19T09:47:32.349Z,7.40
2023-03-19T09:48:57.498Z,6.30
2023-03-19T09:50:23.725Z,7.60
2023-03-19T09:51:53.210Z,6.00
2023-03-19T09:53:30.434Z,6.30
2023-03-19T09:54:56.577Z,5.20
2023-03-19T09:56:19.686Z,5.20
2023-03-19T09:57:41.907Z,5.00
2023-03-19T09:59:04.001Z,4.60
2023-03-19T10:00:34.242Z,5.77
2023-03-19T10:02:19.487Z,3.70
2023-03-19T10:04:02.511Z,4.03
2023-03-19T10:05:43.520Z,3.93
2023-03-19T10:07:32.528Z,3.03
2023-03-19T10:09:03.538Z,4.00
2023-03-19T10:10:49.632Z,4.17
2023-03-19T10:12:23.297Z,2.90
2023-03-19T10:14:01.713Z,3.47
2023-03-19T10:15:33.443Z,3.50
2023-03-19T10:16:58.226Z,2.87
2023-03-19T10:18:29.753Z,3.17
2023-03-19T10:19:57.298Z,3.70
2023-03-19T10:21:22.194Z,3.50
2023-03-19T10:23:19.311Z,3.90
2023-03-19T10:24:44.692Z,3.47
2023-03-19T10:26:15.704Z,3.00
2023-03-19T10:27:38.099Z,3.33
2023-03-19T10:29:09.184Z,3.77
2023-03-19T10:30:33.702Z,3.50
2023-03-19T10:32:04.901Z,3.30
2023-03-19T10:33:59.947Z,3.57
2023-03-19T10:35:37.435Z,3.60
2023-03-19T10:37:14.573Z,3.20
2023-03-19T10:38:41.443Z,3.43
2023-03-19T10:40:10.889Z,4.03
2023-03-19T10:41:36.050Z,4.00
2023-03-19T10:43:04.072Z,3.80
2023-03-19T10:44:43.668Z,3.53
2023-03-19T10:46:05.779Z,3.23
2023-03-19T10:47:27.953Z,3.40
2023-03-19T10:48:50.405Z,4.50
2023-03-19T10:50:23.280Z,3.57
2023-03-19T10:51:46.281Z,5.00
2023-03-19T10:53:14.197Z,4.53
2023-03-19T10:54:40.573Z,4.20
2023-03-19T10:56:06.884Z,3.90
2023-03-19T10:57:31.704Z,3.73
2023-03-19T10:59:06.317Z,4.00
2023-03-19T11:00:33.297Z,3.30
2023-03-19T11:02:01.832Z,3.90
2023-03-19T11:03:29.417Z,4.03
2023-03-19T11:05:07.914Z,4.30
2023-03-19T11:06:33.928Z,3.70
2023-03-19T11:07:57.394Z,4.47
2023-03-19T11:09:34.138Z,3.57
2023-03-19T11:10:56.404Z,3.50
2023-03-19T11:12:31.460Z,3.70
2023-03-19T11:13:53.817Z,2.80
2023-03-19T11:15:21.548Z,2.90
2023-03-19T11:16:52.465Z,3.10
2023-03-19T11:18:21.644Z,3.40
2023-03-19T11:19:52.200Z,3.03
2023-03-19T11:21:29.440Z,2.70
2023-03-19T11:22:52.710Z,2.93
2023-03-19T11:24:17.046Z,3.30
2023-03-19T11:25:51.984Z,3.23
2023-03-19T11:27:14.016Z,3.00
2023-03-19T11:28:37.914Z,3.17
2023-03-19T11:30:00.457Z,3.03
2023-03-19T11:31:41.652Z,2.70
2023-03-19T11:33:19.203Z,2.30
2023-03-19T11:34:59.784Z,2.83
2023-03-19T11:36:56.963Z,2.40
2023-03-19T11:38:30.706Z,2.60
2023-03-19T11:40:10.757Z,2.43
2023-03-19T11:42:06.868Z,2.90
2023-03-19T11:43:38.928Z,2.90
2023-03-19T11:45:32.164Z,2.93
2023-03-19T11:47:17.761Z,3.03
2023-03-19T11:48:55.501Z,3.60
2023-03-19T11:50:26.987Z,3.23
2023-03-19T11:51:59.822Z,3.30
2023-03-19T11:53:56.730Z,3.53
2023-03-19T11:55:28.294Z,3.07
2023-03-19T11:57:03.987Z,2.80
2023-03-19T11:58:38.060Z,2.53
2023-03-19T12:00:03.032Z,2.70
2023-03-19T12:01:51.324Z,2.67
2023-03-19T12:03:35.409Z,2.77
2023-03-19T12:05:10.005Z,3.17
2023-03-19T12:06:48.699Z,3.03
2023-03-19T12:08:18.850Z,2.70
2023-03-19T12:10:12.063Z,3.03
2023-03-19T12:11:40.013Z,3.10
2023-03-19T12:13:37.656Z,3.00
2023-03-19T12:15:15.211Z,2.77
2023-03-19T12:16:48.974Z,2.40
2023-03-19T12:18:40.985Z,2.70
2023-03-19T12:20:03.428Z,2.57
2023-03-19T12:21:47.434Z,3.10
2023-03-19T12:23:19.373Z,4.67
2023-03-19T12:24:57.571Z,3.13
2023-03-19T12:26:26.669Z,2.60
2023-03-19T12:27:48.724Z,2.80
2023-03-19T12:29:17.283Z,3.03
2023-03-19T12:30:44.865Z,2.70
2023-03-19T12:32:37.877Z,3.37
2023-03-19T12:34:12.177Z,2.60
2023-03-19T12:35:38.977Z,3.13
2023-03-19T12:37:13.945Z,2.60
2023-03-19T12:38:48.514Z,1.70
2023-03-19T12:40:20.126Z,1.60
2023-03-19T12:41:44.509Z,1.90
2023-03-19T12:43:19.569Z,1.43
2023-03-19T12:44:46.084Z,1.50
2023-03-19T12:46:26.192Z,1.20
2023-03-19T12:47:50.378Z,1.10
2023-03-19T12:49:25.707Z,0.90
2023-03-19T12:50:54.102Z,1.20
2023-03-19T12:52:26.619Z,1.53
2023-03-19T12:54:19.513Z,1.07
2023-03-19T12:55:48.750Z,1.50
2023-03-19T12:57:27.284Z,1.90
2023-03-19T12:59:01.322Z,1.53
2023-03-19T13:00:26.351Z,1.37
2023-03-19T13:01:54.096Z,1.50
2023-03-19T13:03:31.215Z,1.13
2023-03-19T13:05:22.952Z,1.70
2023-03-19T13:06:50.081Z,1.20
2023-03-19T13:08:30.159Z,1.60
2023-03-19T13:10:00.811Z,1.53
2023-03-19T13:11:28.523Z,1.57
2023-03-19T13:12:52.385Z,1.50
2023-03-19T13:14:25.558Z,2.10
2023-03-19T13:15:51.899Z,1.63
2023-03-19T13:17:32.811Z,1.30
2023-03-19T13:19:35.499Z,1.60
2023-03-19T13:21:11.684Z,1.80
2023-03-19T13:22:37.891Z,2.30
2023-03-19T13:24:24.270Z,1.77
2023-03-19T13:25:49.142Z,1.80
2023-03-19T13:27:22.507Z,2.30
2023-03-19T13:29:15.986Z,1.97
2023-03-19T13:30:42.448Z,2.00
2023-03-19T13:32:30.468Z,1.70
2023-03-19T13:34:14.689Z,1.80
2023-03-19T13:35:49.951Z,1.77
2023-03-19T13:37:21.110Z,1.80
2023-03-19T13:38:51.257Z,1.90
2023-03-19T13:40:39.666Z,3.40
2023-03-19T13:42:20.146Z,2.87
2023-03-19T13:43:43.136Z,2.50
2023-03-19T13:45:20.571Z,2.20
2023-03-19T13:46:45.248Z,1.57
2023-03-19T13:48:29.944Z,3.10
2023-03-19T13:50:08.765Z,2.50
2023-03-19T13:51:32.925Z,4.00
2023-03-19T13:53:32.340Z,4.30
2023-03-19T13:54:58.053Z,5.90
2023-03-19T13:56:29.493Z,2.43
2023-03-19T13:58:16.101Z,1.97
2023-03-19T13:59:39.554Z,2.50
2023-03-19T14:01:01.783Z,2.57
2023-03-19T14:02:26.609Z,2.13
2023-03-19T14:04:22.933Z,1.80
2023-03-19T14:05:48.480Z,2.60
2023-03-19T14:07:20.931Z,2.63
2023-03-19T14:08:48.621Z,2.57
2023-03-19T14:10:25.275Z,2.30
2023-03-19T14:11:47.433Z,2.00
2023-03-19T14:13:35.894Z,2.07
2023-03-19T14:15:09.842Z,2.00
2023-03-19T14:16:39.288Z,2.00
2023-03-19T14:18:05.830Z,2.23
2023-03-19T14:19:30.985Z,2.30
2023-03-19T14:20:56.370Z,2.30
2023-03-19T14:22:35.551Z,2.03
2023-03-19T14:24:52.402Z,2.10
2023-03-19T14:26:13.044Z,2.60
2023-03-19T14:27:35.978Z,2.03
2023-03-19T14:29:07.436Z,2.40
2023-03-19T14:30:44.474Z,2.10
2023-03-19T14:32:09.573Z,2.07
2023-03-19T14:33:54.009Z,2.60
2023-03-19T14:35:20.524Z,2.63
2023-03-19T14:36:48.944Z,2.67
2023-03-19T14:38:31.815Z,2.60
2023-03-19T14:40:12.448Z,2.90
2023-03-19T14:41:43.165Z,2.37
2023-03-19T14:43:14.204Z,2.37
2023-03-19T14:44:54.422Z,2.73
2023-03-19T14:46:55.117Z,2.50
2023-03-19T14:48:55.943Z,2.23
2023-03-19T14:50:29.724Z,2.23
2023-03-19T14:52:10.326Z,2.70
2023-03-19T14:53:49.581Z,2.87
2023-03-19T14:55:16.032Z,2.73
2023-03-19T14:56:38.324Z,3.00
2023-03-19T14:58:04.341Z,2.67
2023-03-19T14:59:26.523Z,3.13
2023-03-19T15:00:51.465Z,2.90
2023-03-19T15:02:42.532Z,3.00
2023-03-19T15:04:08.867Z,3.07
2023-03-19T15:05:34.061Z,2.87
2023-03-19T15:07:01.069Z,4.07
2023-03-19T15:08:24.333Z,3.17
2023-03-19T15:09:54.771Z,3.20
2023-03-19T15:11:31.814Z,3.30
2023-03-19T15:13:07.392Z,3.37
2023-03-19T15:14:42.372Z,3.00
2023-03-19T15:16:21.329Z,3.20
2023-03-19T15:17:49.197Z,3.70
2023-03-19T15:19:24.302Z,5.70
2023-03-19T15:20:50.969Z,6.13
2023-03-19T15:22:13.045Z,3.60
2023-03-19T15:23:46.293Z,3.87
2023-03-19T15:25:14.273Z,5.80
2023-03-19T15:26:37.447Z,8.87
2023-03-19T15:28:26.509Z,4.67
2023-03-19T15:29:51.573Z,3.83
2023-03-19T15:31:31.137Z,3.17
2023-03-19T15:33:10.360Z,3.27
2023-03-19T15:34:33.034Z,3.30
2023-03-19T15:36:03.505Z,5.20
2023-03-19T15:37:28.473Z,16.63
2023-03-19T15:39:04.861Z,20.13
2023-03-19T15:40:31.089Z,13.70
2023-03-19T15:41:54.766Z,8.17
2023-03-19T15:43:17.154Z,4.93
2023-03-19T15:44:47.699Z,4.77
2023-03-19T15:46:16.828Z,3.40
2023-03-19T15:48:17.613Z,3.40
2023-03-19T15:49:43.683Z,3.80
2023-03-19T15:51:08.034Z,3.27
2023-03-19T15:52:33.732Z,3.60
2023-03-19T15:53:56.324Z,4.10
2023-03-19T15:55:21.168Z,3.60
2023-03-19T15:56:43.472Z,3.80
2023-03-19T15:58:15.734Z,3.40
2023-03-19T15:59:38.016Z,4.40
2023-03-19T16:01:01.345Z,3.83
2023-03-19T16:02:34.862Z,3.80
2023-03-19T16:04:01.099Z,4.20
2023-03-19T16:05:24.485Z,3.80
2023-03-19T16:06:49.555Z,3.63
2023-03-19T16:08:17.722Z,4.17
2023-03-19T16:09:39.772Z,3.90
2023-03-19T16:11:38.617Z,3.60
2023-03-19T16:13:05.575Z,3.77
2023-03-19T16:14:30.358Z,4.77
2023-03-19T16:16:05.967Z,4.27
2023-03-19T16:17:35.183Z,3.67
2023-03-19T16:18:58.619Z,4.43
2023-03-19T16:20:21.313Z,3.90
2023-03-19T16:21:43.818Z,3.97
2023-03-19T16:23:06.010Z,3.90
2023-03-19T16:24:34.246Z,3.13
2023-03-19T16:25:56.662Z,4.70
2023-03-19T16:27:39.726Z,5.57
2023-03-19T16:29:23.032Z,5.40
2023-03-19T16:30:48.829Z,6.30
2023-03-19T16:32:19.357Z,6.00
2023-03-19T16:33:42.432Z,5.10
2023-03-19T16:35:04.812Z,4.37
2023-03-19T16:36:32.666Z,5.13
2023-03-19T16:37:55.212Z,4.60
2023-03-19T16:39:34.026Z,4.30
2023-03-19T16:41:32.332Z,4.40
2023-03-19T16:42:56.088Z,4.40
2023-03-19T16:44:19.145Z,4.17
2023-03-19T16:45:42.524Z,4.10
2023-03-19T16:47:12.732Z,4.03
2023-03-19T16:48:34.894Z,4.00
2023-03-19T16:49:56.940Z,4.40
2023-03-19T16:51:21.235Z,4.80
2023-03-19T16:52:45.393Z,4.67
2023-03-19T16:54:09.315Z,4.43
2023-03-19T16:55:35.918Z,4.17
2023-03-19T16:56:58.183Z,4.50
2023-03-19T16:58:32.153Z,4.93
2023-03-19T16:59:54.368Z,5.27
2023-03-19T17:01:20.171Z,6.00
2023-03-19T17:02:42.364Z,5.50
2023-03-19T17:04:12.422Z,5.30
2023-03-19T17:05:34.866Z,5.37
2023-03-19T17:06:57.250Z,4.70
2023-03-19T17:08:21.748Z,5.00
2023-03-19T17:09:43.874Z,5.60
2023-03-19T17:11:06.393Z,4.80
2023-03-19T17:12:28.762Z,5.00
2023-03-19T17:13:51.637Z,5.10
2023-03-19T17:15:20.273Z,5.70
2023-03-19T17:16:47.828Z,5.20
2023-03-19T17:18:24.695Z,5.10
2023-03-19T17:19:47.375Z,4.90
2023-03-19T17:21:31.311Z,5.03
2023-03-19T17:22:53.729Z,5.60
2023-03-19T17:24:33.799Z,4.90
2023-03-19T17:25:56.406Z,5.70
2023-03-19T17:27:18.466Z,5.90
2023-03-19T17:28:40.637Z,6.20
2023-03-19T17:30:02.827Z,5.63
2023-03-19T17:31:33.382Z,7.27
2023-03-19T17:32:56.786Z,6.90
2023-03-19T17:34:27.043Z,7.50
2023-03-19T17:35:49.344Z,7.00
2023-03-19T17:37:14.637Z,7.13
2023-03-19T17:38:36.791Z,6.80
2023-03-19T17:39:58.984Z,6.73
2023-03-19T17:41:21.291Z,6.87
2023-03-19T17:42:43.540Z,8.63
2023-03-19T17:44:06.706Z,7.00
2023-03-19T17:45:29.940Z,5.90
2023-03-19T17:46:54.180Z,5.10
2023-03-19T17:48:27.017Z,6.00
2023-03-19T17:49:49.282Z,5.23
2023-03-19T17:51:11.761Z,5.53
2023-03-19T17:52:36.202Z,5.57
2023-03-19T17:53:59.037Z,5.60
2023-03-19T17:55:23.749Z,5.13
2023-03-19T17:56:45.996Z,4.47
2023-03-19T17:58:21.378Z,5.30
2023-03-19T17:59:43.891Z,4.07
2023-03-19T18:01:15.073Z,3.80
2023-03-19T18:02:37.572Z,3.90
2023-03-19T18:04:00.858Z,4.10
2023-03-19T18:05:26.050Z,3.50
2023-03-19T18:06:54.988Z,4.00
2023-03-19T18:08:20.096Z,4.37
2023-03-19T18:09:42.249Z,4.70
2023-03-19T18:11:04.522Z,4.23
2023-03-19T18:12:26.612Z,3.80
2023-03-19T18:13:48.963Z,3.50
2023-03-19T18:15:11.822Z,3.57
2023-03-19T18:16:33.982Z,5.80
2023-03-19T18:17:58.727Z,5.80
2023-03-19T18:19:29.946Z,21.03
2023-03-19T18:20:52.446Z,9.27
2023-03-19T18:22:17.095Z,6.53
2023-03-19T18:23:39.361Z,4.07
2023-03-19T18:26:17.075Z,6.70
2023-03-19T18:27:39.153Z,5.90
2023-03-19T18:29:01.237Z,4.73
2023-03-19T18:30:23.945Z,4.60
2023-03-19T18:31:48.496Z,4.50
2023-03-19T18:33:29.185Z,4.90
2023-03-19T18:34:51.256Z,4.47
2023-03-19T18:36:18.285Z,4.03
2023-03-19T18:37:40.449Z,3.93
2023-03-19T18:39:02.559Z,3.60
2023-03-19T18:40:27.662Z,3.87
2023-03-19T18:41:49.870Z,3.27
2023-03-19T18:43:15.500Z,2.90
2023-03-19T18:44:38.150Z,2.90
2023-03-19T18:46:00.663Z,2.90
2023-03-19T18:47:22.889Z,2.97
2023-03-19T18:48:44.994Z,2.70
2023-03-19T18:50:25.215Z,2.77
2023-03-19T18:52:01.153Z,3.40
2023-03-19T18:53:24.954Z,3.07
2023-03-19T18:54:47.500Z,3.67
2023-03-19T18:56:21.399Z,4.40